createdAt,value
2023-04-20T00:07:48.784Z,65.28
2023-04-20T00:17:54.172Z,65.03
2023-04-20T00:27:59.908Z,64.73
2023-04-20T00:38:04.120Z,64.73
2023-04-20T00:48:08.155Z,64.72
2023-04-20T00:58:12.973Z,64.59
2023-04-20T01:08:16.493Z,64.66
2023-04-20T01:18:21.181Z,64.40
2023-04-20T01:28:28.666Z,64.30
2023-04-20T01:38:34.869Z,64.38
2023-04-20T01:48:41.063Z,64.32
2023-04-20T01:58:48.138Z,64.12
2023-04-20T02:08:52.839Z,64.04
2023-04-20T02:18:56.786Z,64.23
2023-04-20T02:29:02.298Z,64.23
2023-04-20T02:39:07.897Z,64.58
2023-04-20T02:49:11.465Z,64.72
2023-04-20T02:59:20.696Z,64.95
2023-04-20T03:09:52.621Z,65.15
2023-04-20T03:19:59.194Z,65.56
2023-04-20T03:30:02.847Z,65.80
2023-04-20T03:40:11.382Z,65.73
2023-04-20T03:50:15.013Z,65.52
2023-04-20T04:00:23.948Z,65.04
2023-04-20T04:10:34.158Z,65.09
2023-04-20T04:20:37.969Z,65.32
2023-04-20T04:30:42.879Z,65.09
2023-04-20T04:40:47.034Z,64.56
2023-04-20T04:50:50.849Z,63.93
2023-04-20T05:00:54.434Z,63.20
2023-04-20T05:11:01.664Z,61.95
2023-04-20T05:21:05.370Z,60.93
2023-04-20T05:31:08.949Z,59.85
2023-04-20T05:41:14.694Z,58.73
2023-04-20T05:51:19.163Z,58.29
2023-04-20T06:01:22.941Z,57.67
2023-04-20T06:11:26.709Z,56.87
2023-04-20T06:21:34.900Z,56.11
2023-04-20T06:31:39.750Z,55.71
2023-04-20T06:41:45.608Z,54.37
2023-04-20T06:51:51.273Z,53.06
2023-04-20T07:01:54.907Z,52.13
2023-04-20T07:11:59.067Z,50.82
2023-04-20T07:22:05.071Z,49.90
2023-04-20T07:32:08.694Z,48.82
2023-04-20T07:42:12.383Z,47.48
2023-04-20T07:52:18.547Z,47.15
2023-04-20T08:02:22.323Z,47.46
2023-04-20T08:12:27.448Z,47.80
2023-04-20T08:22:33.890Z,46.97
2023-04-20T08:32:39.684Z,46.16
2023-04-20T08:42:43.454Z,46.53
2023-04-20T08:52:47.188Z,45.86
2023-04-20T09:02:54.079Z,46.28
2023-04-20T09:12:57.715Z,46.57
2023-04-20T09:23:17.283Z,44.67
2023-04-20T09:33:28.703Z,43.52
2023-04-20T09:43:33.741Z,43.50
2023-04-20T09:53:41.245Z,43.07
2023-04-20T10:03:46.146Z,42.51
2023-04-20T10:13:52.035Z,40.48
2023-04-20T10:23:59.130Z,41.21
2023-04-20T10:34:02.710Z,40.73
2023-04-20T11:02:57.632Z,39.87
2023-04-20T11:13:01.646Z,40.65
2023-04-20T11:23:06.190Z,40.44
2023-04-20T11:33:11.131Z,39.78
2023-04-20T11:43:15.388Z,39.69
2023-04-20T11:53:19.021Z,38.38
2023-04-20T12:03:23.020Z,37.46
2023-04-20T12:13:26.813Z,36.63
2023-04-20T12:23:30.850Z,36.20
2023-04-20T12:33:34.449Z,34.33
2023-04-20T12:43:37.978Z,33.35
2023-04-20T12:53:42.201Z,32.79
2023-04-20T13:03:46.514Z,32.44
2023-04-20T13:13:50.442Z,32.21
2023-04-20T13:23:54.871Z,31.22
2023-04-20T13:33:59.923Z,30.89
2023-04-20T13:44:03.862Z,31.37
2023-04-20T13:54:07.741Z,30.69
2023-04-20T14:04:11.590Z,31.45
2023-04-20T14:14:15.504Z,31.03
2023-04-20T14:24:19.784Z,31.12
2023-04-20T14:34:23.548Z,30.71
2023-04-20T14:44:27.118Z,31.63
2023-04-20T14:54:30.752Z,31.45
2023-04-20T15:04:34.507Z,32.11
2023-04-20T15:14:38.343Z,31.77
2023-04-20T15:24:42.799Z,32.51
2023-04-20T15:34:46.392Z,32.91
2023-04-20T15:44:50.053Z,33.25
2023-04-20T15:54:53.691Z,33.48
2023-04-20T16:04:57.573Z,33.31
2023-04-20T16:15:02.413Z,33.57
2023-04-20T16:25:07.089Z,33.58
2023-04-20T16:35:10.844Z,33.92
2023-04-20T16:45:14.750Z,34.25
2023-04-20T16:55:18.442Z,34.69
2023-04-20T17:05:22.155Z,34.83
2023-04-20T17:15:26.253Z,35.10
2023-04-20T17:25:29.795Z,35.70
2023-04-20T17:35:34.082Z,36.27
2023-04-20T17:45:39.515Z,37.20
2023-04-20T17:55:43.229Z,38.25
2023-04-20T18:05:47.096Z,39.09
2023-04-20T18:15:51.004Z,39.70
2023-04-20T18:25:54.672Z,40.42
2023-04-20T18:35:58.288Z,40.94
2023-04-20T18:46:01.917Z,41.65
2023-04-20T18:56:05.484Z,42.04
2023-04-20T19:06:09.112Z,42.69
2023-04-20T19:16:13.354Z,43.19
2023-04-20T19:26:18.276Z,43.56
2023-04-20T19:36:21.917Z,43.87
2023-04-20T19:46:25.692Z,44.26
2023-04-20T19:56:29.368Z,44.73
2023-04-20T20:06:33.087Z,45.23
2023-04-20T20:16:36.679Z,45.55
2023-04-20T20:26:40.364Z,46.02
2023-04-20T20:36:46.004Z,46.15
2023-04-20T20:46:49.565Z,46.00
2023-04-20T20:56:53.523Z,46.24
2023-04-20T21:06:57.286Z,46.66
2023-04-20T21:17:01.315Z,47.09
2023-04-20T21:27:05.343Z,47.74
2023-04-20T21:37:09.533Z,48.03
2023-04-20T21:47:13.373Z,48.64
2023-04-20T21:57:17.251Z,49.17
2023-04-20T22:07:21.376Z,49.42
2023-04-20T22:17:25.220Z,49.87
2023-04-20T22:27:29.308Z,50.45
2023-04-20T22:37:33.158Z,50.90
2023-04-20T22:47:38.009Z,51.38
2023-04-20T22:57:41.891Z,51.51
2023-04-20T23:07:45.836Z,51.50
2023-04-20T23:17:49.528Z,51.48
2023-04-20T23:27:53.279Z,51.49
2023-04-20T23:37:58.375Z,51.43
2023-04-20T23:48:02.118Z,51.69
2023-04-20T23:58:06.228Z,51.64
